sensor_id;sensor_type;location;lat;lon;timestamp;P1;durP1;ratioP1;P2;durP2;ratioP2
78871;SDS011;68247;43.514;1.502;2023-07-20T00:02:11;10.90;;;4.82;;
78871;SDS011;68247;43.514;1.502;2023-07-20T00:04:37;13.73;;;5.60;;
78871;SDS011;68247;43.514;1.502;2023-07-20T00:07:03;9.83;;;5.10;;
78871;SDS011;68247;43.514;1.502;2023-07-20T00:09:29;12.27;;;5.68;;
78871;SDS011;68247;43.514;1.502;2023-07-20T00:11:54;9.57;;;5.38;;
78871;SDS011;68247;43.514;1.502;2023-07-20T00:14:20;9.83;;;4.67;;
78871;SDS011;68247;43.514;1.502;2023-07-20T00:16:46;12.27;;;5.00;;
78871;SDS011;68247;43.514;1.502;2023-07-20T00:19:12;10.90;;;5.40;;
78871;SDS011;68247;43.514;1.502;2023-07-20T00:21:38;13.48;;;5.35;;
78871;SDS011;68247;43.514;1.502;2023-07-20T00:24:05;11.60;;;5.75;;
78871;SDS011;68247;43.514;1.502;2023-07-20T00:26:31;10.00;;;5.20;;
78871;SDS011;68247;43.514;1.502;2023-07-20T00:28:56;10.80;;;5.47;;
78871;SDS011;68247;43.514;1.502;2023-07-20T00:31:22;12.43;;;5.07;;
78871;SDS011;68247;43.514;1.502;2023-07-20T00:33:47;12.70;;;5.53;;
78871;SDS011;68247;43.514;1.502;2023-07-20T00:36:13;10.95;;;5.20;;
78871;SDS011;68247;43.514;1.502;2023-07-20T00:38:39;11.93;;;5.10;;
78871;SDS011;68247;43.514;1.502;2023-07-20T00:41:05;12.68;;;5.30;;
78871;SDS011;68247;43.514;1.502;2023-07-20T00:43:31;13.73;;;5.17;;
78871;SDS011;68247;43.514;1.502;2023-07-20T00:45:56;12.88;;;5.60;;
78871;SDS011;68247;43.514;1.502;2023-07-20T00:48:22;11.40;;;5.33;;
78871;SDS011;68247;43.514;1.502;2023-07-20T00:50:48;10.95;;;5.28;;
78871;SDS011;68247;43.514;1.502;2023-07-20T00:53:13;12.57;;;5.10;;
78871;SDS011;68247;43.514;1.502;2023-07-20T00:55:39;10.57;;;5.60;;
78871;SDS011;68247;43.514;1.502;2023-07-20T00:58:05;9.63;;;5.43;;
78871;SDS011;68247;43.514;1.502;2023-07-20T01:00:30;12.00;;;5.27;;
78871;SDS011;68247;43.514;1.502;2023-07-20T01:02:56;10.52;;;5.20;;
78871;SDS011;68247;43.514;1.502;2023-07-20T01:05:22;14.30;;;5.73;;
78871;SDS011;68247;43.514;1.502;2023-07-20T01:07:58;10.80;;;4.95;;
78871;SDS011;68247;43.514;1.502;2023-07-20T01:10:36;11.60;;;5.20;;
78871;SDS011;68247;43.514;1.502;2023-07-20T01:13:11;10.67;;;5.20;;
78871;SDS011;68247;43.514;1.502;2023-07-20T01:15:40;8.88;;;4.65;;
78871;SDS011;68247;43.514;1.502;2023-07-20T01:18:05;12.83;;;5.20;;
78871;SDS011;68247;43.514;1.502;2023-07-20T01:20:31;12.20;;;5.30;;
78871;SDS011;68247;43.514;1.502;2023-07-20T01:28:19;10.13;;;4.97;;
78871;SDS011;68247;43.514;1.502;2023-07-20T01:33:42;11.40;;;4.90;;
78871;SDS011;68247;43.514;1.502;2023-07-20T01:36:08;11.18;;;4.82;;
78871;SDS011;68247;43.514;1.502;2023-07-20T01:38:36;10.93;;;5.20;;
78871;SDS011;68247;43.514;1.502;2023-07-20T01:41:02;11.18;;;5.10;;
78871;SDS011;68247;43.514;1.502;2023-07-20T01:43:28;8.97;;;4.80;;
78871;SDS011;68247;43.514;1.502;2023-07-20T01:45:53;9.73;;;5.07;;
78871;SDS011;68247;43.514;1.502;2023-07-20T01:48:18;11.20;;;4.93;;
78871;SDS011;68247;43.514;1.502;2023-07-20T01:50:44;10.67;;;5.27;;
78871;SDS011;68247;43.514;1.502;2023-07-20T01:53:10;8.90;;;4.97;;
78871;SDS011;68247;43.514;1.502;2023-07-20T01:55:35;8.50;;;4.72;;
78871;SDS011;68247;43.514;1.502;2023-07-20T01:58:01;11.10;;;5.30;;
78871;SDS011;68247;43.514;1.502;2023-07-20T02:00:27;10.40;;;5.43;;
78871;SDS011;68247;43.514;1.502;2023-07-20T02:02:52;10.63;;;5.33;;
78871;SDS011;68247;43.514;1.502;2023-07-20T02:05:18;12.27;;;5.40;;
78871;SDS011;68247;43.514;1.502;2023-07-20T02:07:43;11.47;;;5.40;;
78871;SDS011;68247;43.514;1.502;2023-07-20T02:10:09;9.87;;;4.77;;
78871;SDS011;68247;43.514;1.502;2023-07-20T02:12:35;9.98;;;5.35;;
78871;SDS011;68247;43.514;1.502;2023-07-20T02:15:00;10.60;;;5.60;;
78871;SDS011;68247;43.514;1.502;2023-07-20T02:17:27;11.13;;;6.32;;
78871;SDS011;68247;43.514;1.502;2023-07-20T02:19:52;17.07;;;6.83;;
78871;SDS011;68247;43.514;1.502;2023-07-20T02:22:18;12.90;;;5.97;;
78871;SDS011;68247;43.514;1.502;2023-07-20T02:24:43;13.90;;;6.03;;
78871;SDS011;68247;43.514;1.502;2023-07-20T02:27:09;9.10;;;5.47;;
78871;SDS011;68247;43.514;1.502;2023-07-20T02:29:34;12.35;;;5.88;;
78871;SDS011;68247;43.514;1.502;2023-07-20T02:32:00;13.30;;;5.30;;
78871;SDS011;68247;43.514;1.502;2023-07-20T02:34:26;13.90;;;5.50;;
78871;SDS011;68247;43.514;1.502;2023-07-20T02:36:52;13.40;;;6.03;;
78871;SDS011;68247;43.514;1.502;2023-07-20T02:39:17;10.13;;;6.37;;
78871;SDS011;68247;43.514;1.502;2023-07-20T02:41:42;11.70;;;5.88;;
78871;SDS011;68247;43.514;1.502;2023-07-20T02:44:08;11.63;;;5.20;;
78871;SDS011;68247;43.514;1.502;2023-07-20T02:46:33;14.37;;;5.93;;
78871;SDS011;68247;43.514;1.502;2023-07-20T02:49:00;16.15;;;5.80;;
78871;SDS011;68247;43.514;1.502;2023-07-20T02:51:26;13.45;;;5.78;;
78871;SDS011;68247;43.514;1.502;2023-07-20T02:53:51;10.50;;;5.40;;
78871;SDS011;68247;43.514;1.502;2023-07-20T02:56:16;11.57;;;5.93;;
78871;SDS011;68247;43.514;1.502;2023-07-20T02:58:43;11.38;;;5.57;;
78871;SDS011;68247;43.514;1.502;2023-07-20T03:01:09;11.63;;;5.50;;
78871;SDS011;68247;43.514;1.502;2023-07-20T03:03:36;12.50;;;5.93;;
78871;SDS011;68247;43.514;1.502;2023-07-20T03:06:04;13.25;;;5.65;;
78871;SDS011;68247;43.514;1.502;2023-07-20T03:08:30;11.65;;;5.45;;
78871;SDS011;68247;43.514;1.502;2023-07-20T03:10:55;12.80;;;5.80;;
78871;SDS011;68247;43.514;1.502;2023-07-20T03:13:21;9.33;;;5.70;;
78871;SDS011;68247;43.514;1.502;2023-07-20T03:15:46;11.73;;;5.70;;
78871;SDS011;68247;43.514;1.502;2023-07-20T03:18:12;9.95;;;5.43;;
78871;SDS011;68247;43.514;1.502;2023-07-20T03:20:38;12.67;;;6.43;;
78871;SDS011;68247;43.514;1.502;2023-07-20T03:23:03;8.35;;;5.47;;
78871;SDS011;68247;43.514;1.502;2023-07-20T03:25:29;13.85;;;6.30;;
78871;SDS011;68247;43.514;1.502;2023-07-20T03:27:55;11.00;;;6.17;;
78871;SDS011;68247;43.514;1.502;2023-07-20T03:30:20;9.83;;;5.73;;
78871;SDS011;68247;43.514;1.502;2023-07-20T03:32:46;13.95;;;6.85;;
78871;SDS011;68247;43.514;1.502;2023-07-20T03:35:12;10.80;;;6.03;;
78871;SDS011;68247;43.514;1.502;2023-07-20T03:37:37;9.70;;;5.57;;
78871;SDS011;68247;43.514;1.502;2023-07-20T03:40:03;13.57;;;5.80;;
78871;SDS011;68247;43.514;1.502;2023-07-20T03:42:30;13.45;;;5.82;;
78871;SDS011;68247;43.514;1.502;2023-07-20T03:44:55;10.52;;;5.82;;
78871;SDS011;68247;43.514;1.502;2023-07-20T03:47:21;12.83;;;6.10;;
78871;SDS011;68247;43.514;1.502;2023-07-20T03:49:46;14.43;;;5.90;;
78871;SDS011;68247;43.514;1.502;2023-07-20T03:52:12;11.82;;;5.88;;
78871;SDS011;68247;43.514;1.502;2023-07-20T03:54:37;14.60;;;6.10;;
78871;SDS011;68247;43.514;1.502;2023-07-20T03:57:03;10.57;;;5.50;;
78871;SDS011;68247;43.514;1.502;2023-07-20T03:59:29;10.30;;;5.47;;
78871;SDS011;68247;43.514;1.502;2023-07-20T04:01:54;10.87;;;5.80;;
78871;SDS011;68247;43.514;1.502;2023-07-20T04:04:20;11.95;;;5.80;;
78871;SDS011;68247;43.514;1.502;2023-07-20T04:06:45;12.67;;;5.93;;
78871;SDS011;68247;43.514;1.502;2023-07-20T04:09:11;10.82;;;6.03;;
78871;SDS011;68247;43.514;1.502;2023-07-20T04:11:37;12.73;;;6.30;;
78871;SDS011;68247;43.514;1.502;2023-07-20T04:14:03;11.32;;;6.03;;
78871;SDS011;68247;43.514;1.502;2023-07-20T04:16:29;15.25;;;6.43;;
78871;SDS011;68247;43.514;1.502;2023-07-20T04:18:55;15.37;;;6.50;;
78871;SDS011;68247;43.514;1.502;2023-07-20T04:21:21;12.10;;;5.80;;
78871;SDS011;68247;43.514;1.502;2023-07-20T04:23:47;15.43;;;6.27;;
78871;SDS011;68247;43.514;1.502;2023-07-20T04:26:12;11.23;;;6.30;;
78871;SDS011;68247;43.514;1.502;2023-07-20T04:28:40;12.47;;;6.07;;
78871;SDS011;68247;43.514;1.502;2023-07-20T04:31:13;13.55;;;6.68;;
78871;SDS011;68247;43.514;1.502;2023-07-20T04:33:39;11.10;;;5.93;;
78871;SDS011;68247;43.514;1.502;2023-07-20T04:36:05;13.43;;;6.27;;
78871;SDS011;68247;43.514;1.502;2023-07-20T04:38:30;12.45;;;6.60;;
78871;SDS011;68247;43.514;1.502;2023-07-20T04:40:56;14.37;;;6.50;;
78871;SDS011;68247;43.514;1.502;2023-07-20T04:43:21;11.03;;;5.53;;
78871;SDS011;68247;43.514;1.502;2023-07-20T04:45:47;10.70;;;6.13;;
78871;SDS011;68247;43.514;1.502;2023-07-20T04:48:13;11.47;;;6.30;;
78871;SDS011;68247;43.514;1.502;2023-07-20T04:50:40;10.98;;;6.63;;
78871;SDS011;68247;43.514;1.502;2023-07-20T04:53:06;12.85;;;6.05;;
78871;SDS011;68247;43.514;1.502;2023-07-20T04:55:32;11.83;;;6.37;;
78871;SDS011;68247;43.514;1.502;2023-07-20T04:57:59;16.73;;;6.53;;
78871;SDS011;68247;43.514;1.502;2023-07-20T05:00:26;10.38;;;5.95;;
78871;SDS011;68247;43.514;1.502;2023-07-20T05:02:51;11.33;;;6.53;;
78871;SDS011;68247;43.514;1.502;2023-07-20T05:05:16;12.00;;;6.10;;
78871;SDS011;68247;43.514;1.502;2023-07-20T05:07:42;9.13;;;5.80;;
78871;SDS011;68247;43.514;1.502;2023-07-20T05:10:07;10.93;;;5.83;;
78871;SDS011;68247;43.514;1.502;2023-07-20T05:12:33;10.50;;;5.53;;
78871;SDS011;68247;43.514;1.502;2023-07-20T05:14:58;13.07;;;6.20;;
78871;SDS011;68247;43.514;1.502;2023-07-20T05:17:24;13.10;;;5.77;;
78871;SDS011;68247;43.514;1.502;2023-07-20T05:19:50;10.32;;;6.05;;
78871;SDS011;68247;43.514;1.502;2023-07-20T05:22:16;12.23;;;6.20;;
78871;SDS011;68247;43.514;1.502;2023-07-20T05:24:42;13.40;;;5.60;;
78871;SDS011;68247;43.514;1.502;2023-07-20T05:27:08;11.25;;;5.88;;
78871;SDS011;68247;43.514;1.502;2023-07-20T05:29:33;12.70;;;6.30;;
78871;SDS011;68247;43.514;1.502;2023-07-20T05:31:59;10.57;;;5.40;;
78871;SDS011;68247;43.514;1.502;2023-07-20T05:34:24;12.93;;;5.87;;
78871;SDS011;68247;43.514;1.502;2023-07-20T05:36:49;12.67;;;5.57;;
78871;SDS011;68247;43.514;1.502;2023-07-20T05:39:18;14.23;;;5.83;;
78871;SDS011;68247;43.514;1.502;2023-07-20T05:41:44;12.43;;;5.88;;
78871;SDS011;68247;43.514;1.502;2023-07-20T05:44:09;12.70;;;5.90;;
78871;SDS011;68247;43.514;1.502;2023-07-20T05:46:34;12.02;;;5.97;;
78871;SDS011;68247;43.514;1.502;2023-07-20T05:49:00;9.03;;;5.50;;
78871;SDS011;68247;43.514;1.502;2023-07-20T05:51:26;11.18;;;5.40;;
78871;SDS011;68247;43.514;1.502;2023-07-20T05:53:52;12.40;;;6.07;;
78871;SDS011;68247;43.514;1.502;2023-07-20T05:56:17;10.70;;;5.32;;
78871;SDS011;68247;43.514;1.502;2023-07-20T05:58:43;8.67;;;5.17;;
78871;SDS011;68247;43.514;1.502;2023-07-20T06:01:09;9.47;;;4.80;;
78871;SDS011;68247;43.514;1.502;2023-07-20T06:03:34;7.83;;;4.77;;
78871;SDS011;68247;43.514;1.502;2023-07-20T06:06:00;10.33;;;4.73;;
78871;SDS011;68247;43.514;1.502;2023-07-20T06:08:27;10.32;;;4.43;;
78871;SDS011;68247;43.514;1.502;2023-07-20T06:10:53;9.35;;;4.90;;
78871;SDS011;68247;43.514;1.502;2023-07-20T06:13:19;10.67;;;4.37;;
78871;SDS011;68247;43.514;1.502;2023-07-20T06:15:44;24.83;;;7.87;;
78871;SDS011;68247;43.514;1.502;2023-07-20T06:18:10;8.67;;;4.60;;
78871;SDS011;68247;43.514;1.502;2023-07-20T06:20:35;7.67;;;4.20;;
78871;SDS011;68247;43.514;1.502;2023-07-20T06:23:00;9.57;;;4.50;;
78871;SDS011;68247;43.514;1.502;2023-07-20T06:25:26;8.47;;;4.43;;
78871;SDS011;68247;43.514;1.502;2023-07-20T06:27:51;9.57;;;4.30;;
78871;SDS011;68247;43.514;1.502;2023-07-20T06:30:17;9.23;;;4.40;;
78871;SDS011;68247;43.514;1.502;2023-07-20T06:32:43;8.80;;;4.27;;
78871;SDS011;68247;43.514;1.502;2023-07-20T06:35:08;8.93;;;3.83;;
78871;SDS011;68247;43.514;1.502;2023-07-20T06:37:34;8.60;;;4.50;;
78871;SDS011;68247;43.514;1.502;2023-07-20T06:40:00;12.13;;;4.20;;
78871;SDS011;68247;43.514;1.502;2023-07-20T06:42:26;9.80;;;4.28;;
78871;SDS011;68247;43.514;1.502;2023-07-20T06:44:52;9.83;;;4.40;;
78871;SDS011;68247;43.514;1.502;2023-07-20T06:47:17;12.23;;;4.87;;
78871;SDS011;68247;43.514;1.502;2023-07-20T06:49:42;12.00;;;4.47;;
78871;SDS011;68247;43.514;1.502;2023-07-20T06:52:08;8.07;;;4.03;;
78871;SDS011;68247;43.514;1.502;2023-07-20T06:54:33;10.27;;;3.92;;
78871;SDS011;68247;43.514;1.502;2023-07-20T06:56:59;8.33;;;4.20;;
78871;SDS011;68247;43.514;1.502;2023-07-20T06:59:24;9.67;;;4.13;;
78871;SDS011;68247;43.514;1.502;2023-07-20T07:01:50;11.65;;;4.15;;
78871;SDS011;68247;43.514;1.502;2023-07-20T07:04:15;8.07;;;4.27;;
78871;SDS011;68247;43.514;1.502;2023-07-20T07:06:41;11.33;;;4.27;;
78871;SDS011;68247;43.514;1.502;2023-07-20T07:09:06;8.10;;;3.77;;
78871;SDS011;68247;43.514;1.502;2023-07-20T07:11:33;8.68;;;3.60;;
78871;SDS011;68247;43.514;1.502;2023-07-20T07:13:59;10.37;;;3.93;;
78871;SDS011;68247;43.514;1.502;2023-07-20T07:16:24;7.43;;;3.40;;
78871;SDS011;68247;43.514;1.502;2023-07-20T07:18:50;10.03;;;4.20;;
78871;SDS011;68247;43.514;1.502;2023-07-20T07:21:16;11.15;;;3.78;;
78871;SDS011;68247;43.514;1.502;2023-07-20T07:23:43;8.23;;;3.87;;
78871;SDS011;68247;43.514;1.502;2023-07-20T07:26:09;8.90;;;3.97;;
78871;SDS011;68247;43.514;1.502;2023-07-20T07:28:34;8.15;;;3.60;;
78871;SDS011;68247;43.514;1.502;2023-07-20T07:31:00;9.27;;;3.57;;
78871;SDS011;68247;43.514;1.502;2023-07-20T07:33:25;7.20;;;3.30;;
78871;SDS011;68247;43.514;1.502;2023-07-20T07:35:51;6.77;;;3.60;;
78871;SDS011;68247;43.514;1.502;2023-07-20T07:38:19;7.30;;;3.38;;
78871;SDS011;68247;43.514;1.502;2023-07-20T07:40:45;8.53;;;3.63;;
78871;SDS011;68247;43.514;1.502;2023-07-20T07:43:11;7.25;;;3.80;;
78871;SDS011;68247;43.514;1.502;2023-07-20T07:45:38;9.00;;;3.80;;
78871;SDS011;68247;43.514;1.502;2023-07-20T07:48:04;8.53;;;3.70;;
78871;SDS011;68247;43.514;1.502;2023-07-20T07:50:30;7.15;;;3.17;;
78871;SDS011;68247;43.514;1.502;2023-07-20T07:52:56;10.05;;;3.78;;
78871;SDS011;68247;43.514;1.502;2023-07-20T07:55:21;8.63;;;3.20;;
78871;SDS011;68247;43.514;1.502;2023-07-20T07:57:47;6.57;;;3.27;;
78871;SDS011;68247;43.514;1.502;2023-07-20T08:00:12;8.32;;;3.17;;
78871;SDS011;68247;43.514;1.502;2023-07-20T08:02:42;7.37;;;3.67;;
78871;SDS011;68247;43.514;1.502;2023-07-20T08:05:08;8.18;;;3.22;;
78871;SDS011;68247;43.514;1.502;2023-07-20T08:07:35;6.82;;;3.03;;
78871;SDS011;68247;43.514;1.502;2023-07-20T08:10:01;6.68;;;2.97;;
78871;SDS011;68247;43.514;1.502;2023-07-20T08:12:27;5.93;;;3.30;;
78871;SDS011;68247;43.514;1.502;2023-07-20T08:14:52;7.00;;;3.37;;
78871;SDS011;68247;43.514;1.502;2023-07-20T08:17:17;7.63;;;3.13;;
78871;SDS011;68247;43.514;1.502;2023-07-20T08:19:43;8.43;;;3.50;;
78871;SDS011;68247;43.514;1.502;2023-07-20T08:22:10;6.32;;;3.30;;
78871;SDS011;68247;43.514;1.502;2023-07-20T08:24:39;6.55;;;3.17;;
78871;SDS011;68247;43.514;1.502;2023-07-20T08:27:05;6.80;;;3.07;;
78871;SDS011;68247;43.514;1.502;2023-07-20T08:29:30;7.80;;;3.10;;
78871;SDS011;68247;43.514;1.502;2023-07-20T08:31:56;6.20;;;2.80;;
78871;SDS011;68247;43.514;1.502;2023-07-20T08:34:21;8.27;;;3.00;;
78871;SDS011;68247;43.514;1.502;2023-07-20T08:36:46;6.47;;;3.10;;
78871;SDS011;68247;43.514;1.502;2023-07-20T08:39:12;6.90;;;3.00;;
78871;SDS011;68247;43.514;1.502;2023-07-20T08:41:37;7.45;;;3.10;;
78871;SDS011;68247;43.514;1.502;2023-07-20T08:44:04;9.87;;;3.23;;
78871;SDS011;68247;43.514;1.502;2023-07-20T08:46:30;5.68;;;2.80;;
78871;SDS011;68247;43.514;1.502;2023-07-20T08:48:55;8.83;;;3.13;;
78871;SDS011;68247;43.514;1.502;2023-07-20T08:51:21;7.00;;;2.80;;
78871;SDS011;68247;43.514;1.502;2023-07-20T08:53:48;6.15;;;3.10;;
78871;SDS011;68247;43.514;1.502;2023-07-20T08:56:16;8.00;;;3.28;;
78871;SDS011;68247;43.514;1.502;2023-07-20T08:58:43;6.50;;;3.00;;
78871;SDS011;68247;43.514;1.502;2023-07-20T09:01:09;7.28;;;2.80;;
78871;SDS011;68247;43.514;1.502;2023-07-20T09:03:35;8.60;;;2.97;;
78871;SDS011;68247;43.514;1.502;2023-07-20T09:06:04;6.18;;;2.85;;
78871;SDS011;68247;43.514;1.502;2023-07-20T09:08:30;11.57;;;2.63;;
78871;SDS011;68247;43.514;1.502;2023-07-20T09:10:55;7.20;;;2.77;;
78871;SDS011;68247;43.514;1.502;2023-07-20T09:13:20;4.65;;;2.40;;
78871;SDS011;68247;43.514;1.502;2023-07-20T09:15:46;7.37;;;2.73;;
78871;SDS011;68247;43.514;1.502;2023-07-20T09:18:12;6.55;;;2.88;;
78871;SDS011;68247;43.514;1.502;2023-07-20T09:20:49;6.77;;;2.57;;
78871;SDS011;68247;43.514;1.502;2023-07-20T09:23:14;4.80;;;2.50;;
78871;SDS011;68247;43.514;1.502;2023-07-20T09:25:40;7.40;;;2.77;;
78871;SDS011;68247;43.514;1.502;2023-07-20T09:28:05;5.85;;;2.67;;
78871;SDS011;68247;43.514;1.502;2023-07-20T09:30:31;6.27;;;2.70;;
78871;SDS011;68247;43.514;1.502;2023-07-20T09:32:58;7.10;;;2.57;;
78871;SDS011;68247;43.514;1.502;2023-07-20T09:35:23;5.07;;;2.40;;
78871;SDS011;68247;43.514;1.502;2023-07-20T09:37:50;5.28;;;2.10;;
78871;SDS011;68247;43.514;1.502;2023-07-20T09:40:19;5.40;;;2.40;;
78871;SDS011;68247;43.514;1.502;2023-07-20T09:42:45;6.40;;;2.25;;
78871;SDS011;68247;43.514;1.502;2023-07-20T09:45:11;4.60;;;2.22;;
78871;SDS011;68247;43.514;1.502;2023-07-20T09:47:37;6.30;;;2.20;;
78871;SDS011;68247;43.514;1.502;2023-07-20T09:50:03;4.33;;;2.20;;
78871;SDS011;68247;43.514;1.502;2023-07-20T09:52:29;6.40;;;2.40;;
78871;SDS011;68247;43.514;1.502;2023-07-20T09:54:55;4.18;;;2.10;;
78871;SDS011;68247;43.514;1.502;2023-07-20T09:57:21;6.23;;;2.50;;
78871;SDS011;68247;43.514;1.502;2023-07-20T09:59:47;5.40;;;2.30;;
78871;SDS011;68247;43.514;1.502;2023-07-20T10:02:46;12.87;;;2.50;;
78871;SDS011;68247;43.514;1.502;2023-07-20T10:05:11;6.10;;;2.20;;
78871;SDS011;68247;43.514;1.502;2023-07-20T10:07:40;5.45;;;2.40;;
78871;SDS011;68247;43.514;1.502;2023-07-20T10:10:09;6.03;;;2.38;;
78871;SDS011;68247;43.514;1.502;2023-07-20T10:12:36;5.40;;;2.50;;
78871;SDS011;68247;43.514;1.502;2023-07-20T10:15:13;5.50;;;2.55;;
78871;SDS011;68247;43.514;1.502;2023-07-20T10:18:06;4.97;;;2.47;;
78871;SDS011;68247;43.514;1.502;2023-07-20T10:20:33;4.47;;;2.25;;
78871;SDS011;68247;43.514;1.502;2023-07-20T10:23:01;7.53;;;2.63;;
78871;SDS011;68247;43.514;1.502;2023-07-20T10:25:27;6.30;;;2.27;;
78871;SDS011;68247;43.514;1.502;2023-07-20T10:27:53;6.15;;;2.42;;
78871;SDS011;68247;43.514;1.502;2023-07-20T10:30:20;6.95;;;2.70;;
78871;SDS011;68247;43.514;1.502;2023-07-20T10:32:45;5.17;;;2.43;;
78871;SDS011;68247;43.514;1.502;2023-07-20T10:35:12;6.57;;;2.38;;
78871;SDS011;68247;43.514;1.502;2023-07-20T10:37:46;6.35;;;2.20;;
78871;SDS011;68247;43.514;1.502;2023-07-20T10:40:34;5.10;;;2.50;;
78871;SDS011;68247;43.514;1.502;2023-07-20T10:43:04;5.10;;;2.45;;
78871;SDS011;68247;43.514;1.502;2023-07-20T10:45:39;6.10;;;2.80;;
78871;SDS011;68247;43.514;1.502;2023-07-20T10:48:16;6.25;;;2.45;;
78871;SDS011;68247;43.514;1.502;2023-07-20T10:50:44;6.90;;;2.90;;
78871;SDS011;68247;43.514;1.502;2023-07-20T10:53:16;6.32;;;2.85;;
78871;SDS011;68247;43.514;1.502;2023-07-20T10:55:42;6.55;;;3.72;;
78871;SDS011;68247;43.514;1.502;2023-07-20T10:58:12;7.70;;;2.50;;
78871;SDS011;68247;43.514;1.502;2023-07-20T11:03:29;5.70;;;2.33;;
78871;SDS011;68247;43.514;1.502;2023-07-20T11:05:56;7.32;;;3.17;;
78871;SDS011;68247;43.514;1.502;2023-07-20T11:08:38;9.23;;;2.60;;
78871;SDS011;68247;43.514;1.502;2023-07-20T11:11:41;7.93;;;2.70;;
78871;SDS011;68247;43.514;1.502;2023-07-20T11:14:00;10.60;;;2.65;;
78871;SDS011;68247;43.514;1.502;2023-07-20T11:16:34;4.85;;;2.90;;
78871;SDS011;68247;43.514;1.502;2023-07-20T11:19:04;5.35;;;2.63;;
78871;SDS011;68247;43.514;1.502;2023-07-20T11:21:37;6.85;;;2.72;;
78871;SDS011;68247;43.514;1.502;2023-07-20T11:24:04;6.83;;;2.80;;
78871;SDS011;68247;43.514;1.502;2023-07-20T11:26:39;6.32;;;2.58;;
78871;SDS011;68247;43.514;1.502;2023-07-20T11:29:05;4.38;;;2.70;;
78871;SDS011;68247;43.514;1.502;2023-07-20T11:31:30;5.77;;;2.70;;
78871;SDS011;68247;43.514;1.502;2023-07-20T11:33:55;5.80;;;2.73;;
78871;SDS011;68247;43.514;1.502;2023-07-20T11:36:21;4.83;;;2.83;;
78871;SDS011;68247;43.514;1.502;2023-07-20T11:38:46;5.47;;;3.07;;
78871;SDS011;68247;43.514;1.502;2023-07-20T11:41:12;7.67;;;2.80;;
78871;SDS011;68247;43.514;1.502;2023-07-20T11:43:38;6.07;;;2.60;;
78871;SDS011;68247;43.514;1.502;2023-07-20T11:46:04;6.13;;;2.95;;
78871;SDS011;68247;43.514;1.502;2023-07-20T11:48:31;5.63;;;2.90;;
78871;SDS011;68247;43.514;1.502;2023-07-20T11:50:57;7.13;;;2.83;;
78871;SDS011;68247;43.514;1.502;2023-07-20T11:53:24;5.30;;;2.47;;
78871;SDS011;68247;43.514;1.502;2023-07-20T11:55:49;9.00;;;2.97;;
78871;SDS011;68247;43.514;1.502;2023-07-20T11:58:15;6.70;;;3.00;;
78871;SDS011;68247;43.514;1.502;2023-07-20T12:00:41;7.10;;;2.83;;
78871;SDS011;68247;43.514;1.502;2023-07-20T12:03:09;7.25;;;2.63;;
78871;SDS011;68247;43.514;1.502;2023-07-20T12:05:38;4.93;;;2.70;;
78871;SDS011;68247;43.514;1.502;2023-07-20T12:08:04;5.03;;;3.13;;
78871;SDS011;68247;43.514;1.502;2023-07-20T12:10:30;5.60;;;2.97;;
78871;SDS011;68247;43.514;1.502;2023-07-20T12:13:00;7.63;;;3.17;;
78871;SDS011;68247;43.514;1.502;2023-07-20T12:15:27;6.97;;;3.33;;
78871;SDS011;68247;43.514;1.502;2023-07-20T12:17:58;7.17;;;2.90;;
78871;SDS011;68247;43.514;1.502;2023-07-20T12:23:01;5.15;;;3.00;;
78871;SDS011;68247;43.514;1.502;2023-07-20T12:25:40;6.20;;;2.95;;
78871;SDS011;68247;43.514;1.502;2023-07-20T12:28:12;5.38;;;3.38;;
78871;SDS011;68247;43.514;1.502;2023-07-20T12:30:39;6.37;;;3.13;;
78871;SDS011;68247;43.514;1.502;2023-07-20T12:33:05;5.45;;;3.15;;
78871;SDS011;68247;43.514;1.502;2023-07-20T12:35:31;5.47;;;3.47;;
78871;SDS011;68247;43.514;1.502;2023-07-20T12:37:57;5.57;;;3.00;;
78871;SDS011;68247;43.514;1.502;2023-07-20T12:40:23;5.20;;;3.40;;
78871;SDS011;68247;43.514;1.502;2023-07-20T12:42:49;6.22;;;3.55;;
78871;SDS011;68247;43.514;1.502;2023-07-20T12:45:14;6.13;;;3.03;;
78871;SDS011;68247;43.514;1.502;2023-07-20T12:47:40;6.10;;;3.00;;
78871;SDS011;68247;43.514;1.502;2023-07-20T12:50:08;5.90;;;3.47;;
78871;SDS011;68247;43.514;1.502;2023-07-20T12:52:37;4.27;;;3.07;;
78871;SDS011;68247;43.514;1.502;2023-07-20T12:55:04;4.75;;;2.90;;
78871;SDS011;68247;43.514;1.502;2023-07-20T12:57:30;5.80;;;3.65;;
78871;SDS011;68247;43.514;1.502;2023-07-20T12:59:55;7.37;;;3.40;;
78871;SDS011;68247;43.514;1.502;2023-07-20T13:02:21;4.57;;;3.07;;
78871;SDS011;68247;43.514;1.502;2023-07-20T13:04:46;5.77;;;3.53;;
78871;SDS011;68247;43.514;1.502;2023-07-20T13:07:12;4.97;;;3.08;;
78871;SDS011;68247;43.514;1.502;2023-07-20T13:09:37;5.73;;;3.03;;
78871;SDS011;68247;43.514;1.502;2023-07-20T13:12:03;6.03;;;3.17;;
78871;SDS011;68247;43.514;1.502;2023-07-20T13:14:29;4.25;;;3.30;;
78871;SDS011;68247;43.514;1.502;2023-07-20T13:16:57;5.27;;;3.33;;
78871;SDS011;68247;43.514;1.502;2023-07-20T13:19:22;5.32;;;3.40;;
78871;SDS011;68247;43.514;1.502;2023-07-20T13:21:48;4.97;;;3.33;;
78871;SDS011;68247;43.514;1.502;2023-07-20T13:24:13;7.10;;;3.40;;
78871;SDS011;68247;43.514;1.502;2023-07-20T13:26:39;5.70;;;3.57;;
78871;SDS011;68247;43.514;1.502;2023-07-20T13:29:04;4.63;;;3.42;;
78871;SDS011;68247;43.514;1.502;2023-07-20T13:31:30;5.10;;;3.27;;
78871;SDS011;68247;43.514;1.502;2023-07-20T13:33:55;5.43;;;3.50;;
78871;SDS011;68247;43.514;1.502;2023-07-20T13:36:21;5.10;;;3.53;;
78871;SDS011;68247;43.514;1.502;2023-07-20T13:38:47;6.30;;;3.45;;
78871;SDS011;68247;43.514;1.502;2023-07-20T13:41:13;5.67;;;3.50;;
78871;SDS011;68247;43.514;1.502;2023-07-20T13:43:40;6.38;;;3.60;;
78871;SDS011;68247;43.514;1.502;2023-07-20T13:46:05;5.97;;;3.57;;
78871;SDS011;68247;43.514;1.502;2023-07-20T13:48:31;4.50;;;3.40;;
78871;SDS011;68247;43.514;1.502;2023-07-20T13:50:56;6.73;;;3.40;;
78871;SDS011;68247;43.514;1.502;2023-07-20T13:53:22;7.50;;;3.57;;
78871;SDS011;68247;43.514;1.502;2023-07-20T13:55:47;4.95;;;3.70;;
78871;SDS011;68247;43.514;1.502;2023-07-20T13:58:13;7.03;;;3.50;;
78871;SDS011;68247;43.514;1.502;2023-07-20T14:00:38;6.00;;;3.63;;
78871;SDS011;68247;43.514;1.502;2023-07-20T14:03:04;5.30;;;3.70;;
78871;SDS011;68247;43.514;1.502;2023-07-20T14:05:30;5.10;;;3.70;;
78871;SDS011;68247;43.514;1.502;2023-07-20T14:07:55;4.78;;;3.30;;
78871;SDS011;68247;43.514;1.502;2023-07-20T14:10:20;6.67;;;3.67;;
78871;SDS011;68247;43.514;1.502;2023-07-20T14:12:46;5.13;;;3.40;;
78871;SDS011;68247;43.514;1.502;2023-07-20T14:15:11;7.40;;;3.13;;
78871;SDS011;68247;43.514;1.502;2023-07-20T14:17:37;5.87;;;3.77;;
78871;SDS011;68247;43.514;1.502;2023-07-20T14:20:02;4.90;;;4.05;;
78871;SDS011;68247;43.514;1.502;2023-07-20T14:22:32;6.15;;;3.67;;
78871;SDS011;68247;43.514;1.502;2023-07-20T14:24:58;4.53;;;3.67;;
78871;SDS011;68247;43.514;1.502;2023-07-20T14:27:24;5.33;;;3.90;;
78871;SDS011;68247;43.514;1.502;2023-07-20T14:29:49;5.03;;;3.72;;
78871;SDS011;68247;43.514;1.502;2023-07-20T14:32:15;5.27;;;4.20;;
78871;SDS011;68247;43.514;1.502;2023-07-20T14:34:40;5.00;;;4.20;;
78871;SDS011;68247;43.514;1.502;2023-07-20T14:37:06;4.47;;;4.07;;
78871;SDS011;68247;43.514;1.502;2023-07-20T14:39:31;5.60;;;3.90;;
78871;SDS011;68247;43.514;1.502;2023-07-20T14:41:57;6.00;;;4.00;;
78871;SDS011;68247;43.514;1.502;2023-07-20T14:44:22;4.97;;;3.70;;
78871;SDS011;68247;43.514;1.502;2023-07-20T14:46:48;5.93;;;4.70;;
78871;SDS011;68247;43.514;1.502;2023-07-20T14:49:13;6.10;;;4.00;;
78871;SDS011;68247;43.514;1.502;2023-07-20T14:51:39;4.67;;;3.77;;
78871;SDS011;68247;43.514;1.502;2023-07-20T14:54:08;5.05;;;4.07;;